N755HF KGPI-PASI
Flight info
| Callsign | N755HF |
|---|---|
| Flight time | N/A |
| Altitude | 20000 |
| Route | SKOTT2 SKOTT TWIGY J599 FINBO YWL PR |
| Aircraft | PC12/L-SDFGRWY/S |
Departure
| Time | 2026-05-03 21:48 |
|---|---|
| Airport | Glacier Park International Airport (KGPI) |
Arrival
| Time | N/A |
|---|---|
| Airport | Sitka Rocky Gutierrez Airport (PASI) |
| Time | Latitude | Longitude | Altitude | Speed | Heading |
|---|---|---|---|---|---|
| 2026-05-03 21:37 | 48.30994 | -114.25217 | 2974 ft | 0 kts | 273° |
| 2026-05-03 21:45 | 48.30998 | -114.25245 | 2974 ft | 7 kts | 297° |
| 2026-05-03 21:45 | 48.31049 | -114.25326 | 2974 ft | 15 kts | 2° |
| 2026-05-03 21:46 | 48.31166 | -114.25218 | 2974 ft | 24 kts | 35° |
| 2026-05-03 21:46 | 48.31316 | -114.25059 | 2973 ft | 28 kts | 36° |
| 2026-05-03 21:46 | 48.31488 | -114.24883 | 2973 ft | 31 kts | 35° |
| 2026-05-03 21:46 | 48.31671 | -114.24692 | 2974 ft | 28 kts | 35° |
| 2026-05-03 21:47 | 48.31765 | -114.24731 | 2975 ft | 19 kts | 287° |
| 2026-05-03 21:47 | 48.31655 | -114.24908 | 2973 ft | 37 kts | 216° |
| 2026-05-03 21:47 | 48.31336 | -114.25241 | 2975 ft | 73 kts | 213° |
| 2026-05-03 21:47 | 48.30860 | -114.25740 | 3029 ft | 91 kts | 215° |
| 2026-05-03 21:48 | 48.30304 | -114.26295 | 3223 ft | 99 kts | 212° |
| 2026-05-03 21:48 | 48.29743 | -114.26899 | 3553 ft | 102 kts | 229° |
| 2026-05-03 21:48 | 48.29499 | -114.27935 | 3770 ft | 122 kts | 269° |
| 2026-05-03 21:48 | 48.29663 | -114.29277 | 4101 ft | 136 kts | 291° |
| 2026-05-03 21:49 | 48.30151 | -114.30557 | 4623 ft | 142 kts | 301° |
| 2026-05-03 21:49 | 48.30667 | -114.31768 | 5268 ft | 135 kts | 301° |
| 2026-05-03 21:49 | 48.31158 | -114.32949 | 5799 ft | 133 kts | 298° |
| 2026-05-03 21:49 | 48.31624 | -114.34130 | 6323 ft | 133 kts | 298° |
| 2026-05-03 21:50 | 48.32089 | -114.35365 | 6670 ft | 140 kts | 297° |
| 2026-05-03 21:50 | 48.32573 | -114.36639 | 7101 ft | 140 kts | 301° |
| 2026-05-03 21:50 | 48.33126 | -114.37861 | 7623 ft | 142 kts | 300° |
| 2026-05-03 21:50 | 48.33672 | -114.39131 | 8132 ft | 146 kts | 300° |
| 2026-05-03 21:51 | 48.34211 | -114.40420 | 8725 ft | 146 kts | 300° |